createdAt,value
2023-03-13T00:00:55.923Z,80.70
2023-03-13T00:03:24.143Z,80.70
2023-03-13T00:05:55.944Z,81.00
2023-03-13T00:08:25.438Z,81.20
2023-03-13T00:10:53.330Z,81.20
2023-03-13T00:13:21.129Z,81.50
2023-03-13T00:15:49.112Z,81.50
2023-03-13T00:18:16.912Z,81.60
2023-03-13T00:20:47.662Z,81.50
2023-03-13T00:23:15.492Z,81.70
2023-03-13T00:25:44.612Z,82.10
2023-03-13T00:28:12.448Z,82.50
2023-03-13T00:30:40.398Z,83.10
2023-03-13T00:33:08.248Z,83.40
2023-03-13T00:35:36.076Z,83.80
2023-03-13T00:38:03.967Z,83.90
2023-03-13T00:40:31.770Z,84.00
2023-03-13T00:43:00.907Z,84.50
2023-03-13T00:45:28.705Z,84.80
2023-03-13T00:47:56.519Z,85.00
2023-03-13T00:50:24.386Z,85.40
2023-03-13T00:52:52.171Z,85.60
2023-03-13T00:55:19.979Z,86.00
2023-03-13T00:57:47.911Z,86.30
2023-03-13T01:00:18.291Z,86.50
2023-03-13T01:02:46.194Z,87.10
2023-03-13T01:05:14.176Z,87.20
2023-03-13T01:07:41.986Z,87.50
2023-03-13T01:10:11.048Z,87.70
2023-03-13T01:12:38.853Z,87.80
2023-03-13T01:15:07.546Z,87.90
2023-03-13T01:17:36.708Z,88.00
2023-03-13T01:20:05.493Z,88.10
2023-03-13T01:22:33.318Z,88.20
2023-03-13T01:25:01.138Z,88.20
2023-03-13T01:27:30.119Z,88.40
2023-03-13T01:29:57.939Z,88.40
2023-03-13T01:32:25.833Z,88.50
2023-03-13T01:34:55.059Z,89.00
2023-03-13T01:37:22.880Z,89.00
2023-03-13T01:39:51.145Z,89.30
2023-03-13T01:42:18.988Z,89.50
2023-03-13T01:44:54.475Z,89.60
2023-03-13T01:47:22.744Z,89.60
2023-03-13T01:49:53.525Z,89.60
2023-03-13T01:52:25.653Z,89.80
2023-03-13T01:54:56.287Z,89.70
2023-03-13T01:57:27.933Z,89.80
2023-03-13T02:00:00.455Z,89.80
2023-03-13T02:02:29.485Z,89.70
2023-03-13T02:05:01.544Z,90.10
2023-03-13T02:07:36.137Z,90.20
2023-03-13T02:10:04.395Z,90.30
2023-03-13T02:12:34.155Z,90.50
2023-03-13T02:15:05.615Z,90.70
2023-03-13T02:17:36.724Z,91.00
2023-03-13T02:20:05.027Z,91.10
2023-03-13T02:22:42.112Z,91.30
2023-03-13T02:25:19.073Z,91.40
2023-03-13T02:27:49.226Z,91.60
2023-03-13T02:30:17.183Z,91.70
2023-03-13T02:32:46.415Z,91.70
2023-03-13T02:35:17.934Z,91.80
2023-03-13T02:37:50.683Z,91.70
2023-03-13T02:40:23.640Z,91.90
2023-03-13T02:42:54.536Z,92.10
2023-03-13T02:45:22.456Z,92.10
2023-03-13T02:47:50.453Z,92.20
2023-03-13T02:50:19.047Z,92.30
2023-03-13T02:52:50.542Z,92.30
2023-03-13T02:55:22.657Z,92.30
2023-03-13T02:57:52.120Z,92.50
2023-03-13T03:00:21.872Z,92.50
2023-03-13T03:02:49.694Z,92.40
2023-03-13T03:05:17.583Z,92.50
2023-03-13T03:07:45.500Z,92.40
2023-03-13T03:10:13.516Z,92.40
2023-03-13T03:12:41.317Z,92.50
2023-03-13T03:15:11.635Z,92.40
2023-03-13T03:17:40.747Z,92.50
2023-03-13T03:20:11.940Z,92.50
2023-03-13T03:22:40.674Z,92.40
2023-03-13T03:25:09.948Z,92.50
2023-03-13T03:27:37.829Z,92.50
2023-03-13T03:30:06.641Z,92.50
2023-03-13T03:32:35.841Z,92.50
2023-03-13T03:35:03.801Z,92.70
2023-03-13T03:37:31.623Z,92.70
2023-03-13T03:39:59.449Z,92.80
2023-03-13T03:42:27.226Z,92.70
2023-03-13T03:44:55.243Z,92.90
2023-03-13T03:47:23.138Z,92.80
2023-03-13T03:49:52.308Z,92.80
2023-03-13T03:52:20.127Z,92.70
2023-03-13T03:54:47.950Z,92.70
2023-03-13T03:57:15.807Z,92.80
2023-03-13T03:59:43.651Z,92.70
2023-03-13T04:02:11.598Z,92.90
2023-03-13T04:04:39.439Z,92.80
2023-03-13T04:07:08.631Z,93.00
2023-03-13T04:09:36.432Z,92.90
2023-03-13T04:12:04.508Z,93.20
2023-03-13T04:14:32.326Z,93.10
2023-03-13T04:17:00.204Z,93.00
2023-03-13T04:19:28.062Z,92.90
2023-03-13T04:21:55.872Z,93.00
2023-03-13T04:24:25.135Z,93.10
2023-03-13T04:26:52.950Z,93.00
2023-03-13T04:29:20.765Z,93.00
2023-03-13T04:31:48.605Z,93.00
2023-03-13T04:34:16.430Z,93.00
2023-03-13T04:36:44.230Z,93.00
2023-03-13T04:39:12.041Z,93.00
2023-03-13T04:41:41.213Z,93.00
2023-03-13T04:44:09.086Z,92.80
2023-03-13T04:46:37.114Z,92.80
2023-03-13T04:49:07.083Z,92.90
2023-03-13T04:51:36.270Z,93.10
2023-03-13T04:54:04.078Z,93.00
2023-03-13T04:56:42.656Z,93.00
2023-03-13T04:59:13.514Z,93.00
2023-03-13T05:01:42.108Z,93.00
2023-03-13T05:04:10.597Z,93.10
2023-03-13T05:06:38.557Z,93.00
2023-03-13T05:09:06.501Z,92.90
2023-03-13T05:11:35.063Z,93.00
2023-03-13T05:14:04.245Z,92.90
2023-03-13T05:16:33.428Z,92.80
2023-03-13T05:19:01.239Z,92.80
2023-03-13T05:21:29.081Z,92.90
2023-03-13T05:23:57.450Z,92.80
2023-03-13T05:26:25.325Z,92.80
2023-03-13T05:28:53.136Z,92.70
2023-03-13T05:31:21.110Z,92.80
2023-03-13T05:33:50.306Z,92.60
2023-03-13T05:36:18.153Z,92.60
2023-03-13T05:38:45.986Z,92.60
2023-03-13T05:41:13.822Z,92.60
2023-03-13T05:43:41.654Z,92.70
2023-03-13T05:46:09.617Z,92.40
2023-03-13T05:48:37.503Z,92.40
2023-03-13T05:51:07.016Z,92.40
2023-03-13T05:53:34.797Z,92.20
2023-03-13T05:56:02.627Z,92.20
2023-03-13T05:58:30.431Z,92.10
2023-03-13T06:00:58.271Z,92.00
2023-03-13T06:03:26.125Z,91.90
2023-03-13T06:05:59.082Z,91.80
2023-03-13T06:08:28.894Z,91.60
2023-03-13T06:10:59.737Z,91.50
2023-03-13T06:13:27.750Z,91.40
2023-03-13T06:15:56.255Z,91.60
2023-03-13T06:18:24.573Z,91.40
2023-03-13T06:20:57.906Z,91.40
2023-03-13T06:23:25.935Z,91.30
2023-03-13T06:25:55.598Z,91.10
2023-03-13T06:28:23.674Z,91.00
2023-03-13T06:30:51.508Z,91.10
2023-03-13T06:33:19.405Z,90.90
2023-03-13T06:35:56.132Z,90.90
2023-03-13T06:38:25.150Z,90.80
2023-03-13T06:40:53.282Z,90.70
2023-03-13T06:43:22.953Z,90.60
2023-03-13T06:45:50.944Z,90.50
2023-03-13T06:48:18.891Z,90.60
2023-03-13T06:50:47.143Z,90.50
2023-03-13T06:53:17.624Z,90.70
2023-03-13T06:55:46.262Z,90.70
2023-03-13T06:58:29.124Z,90.80
2023-03-13T07:01:00.239Z,90.60
2023-03-13T07:03:28.243Z,90.30
2023-03-13T07:06:00.274Z,90.20
2023-03-13T07:08:28.965Z,89.90
2023-03-13T07:11:02.135Z,89.80
2023-03-13T07:13:30.252Z,89.50
2023-03-13T07:16:01.026Z,88.90
2023-03-13T07:18:29.080Z,88.80
2023-03-13T07:20:59.129Z,88.70
2023-03-13T07:23:28.850Z,88.30
2023-03-13T07:25:57.692Z,88.40
2023-03-13T07:28:26.684Z,88.00
2023-03-13T07:30:54.617Z,87.50
2023-03-13T07:33:23.794Z,87.40
2023-03-13T07:35:52.774Z,87.20
2023-03-13T07:38:21.088Z,87.10
2023-03-13T07:40:50.455Z,86.80
2023-03-13T07:43:18.524Z,86.80
2023-03-13T07:45:57.350Z,86.60
2023-03-13T07:48:30.090Z,86.40
2023-03-13T07:50:58.053Z,86.20
2023-03-13T07:53:26.910Z,86.20
2023-03-13T07:55:59.549Z,86.20
2023-03-13T07:58:28.932Z,86.30
2023-03-13T08:00:56.789Z,86.10
2023-03-13T08:03:26.828Z,85.80
2023-03-13T08:06:01.873Z,85.70
2023-03-13T08:08:30.432Z,85.40
2023-03-13T08:11:02.262Z,85.20
2023-03-13T08:13:30.353Z,85.20
2023-03-13T08:16:09.069Z,85.10
2023-03-13T08:18:40.161Z,85.00
2023-03-13T08:21:10.057Z,84.80
2023-03-13T08:23:38.597Z,84.70
2023-03-13T08:26:08.396Z,84.20
2023-03-13T08:28:37.453Z,84.40
2023-03-13T08:31:10.009Z,84.00
2023-03-13T08:33:39.990Z,83.80
2023-03-13T08:36:13.453Z,84.00
2023-03-13T08:38:45.874Z,83.80
2023-03-13T08:41:21.099Z,83.60
2023-03-13T08:43:49.375Z,83.60
2023-03-13T08:46:19.279Z,83.40
2023-03-13T08:48:52.052Z,83.20
2023-03-13T08:51:21.489Z,83.10
2023-03-13T08:53:50.144Z,83.20
2023-03-13T08:56:19.656Z,83.10
2023-03-13T08:58:50.974Z,83.10
2023-03-13T09:01:19.001Z,82.70
2023-03-13T09:03:46.937Z,82.60
2023-03-13T09:06:16.552Z,83.00
2023-03-13T09:08:44.867Z,82.30
2023-03-13T09:11:14.651Z,81.90
2023-03-13T09:13:44.437Z,81.60
2023-03-13T09:16:14.066Z,81.20
2023-03-13T09:18:42.740Z,81.20
2023-03-13T09:21:13.162Z,80.90
2023-03-13T09:23:42.373Z,80.40
2023-03-13T09:26:11.559Z,80.80
2023-03-13T09:28:39.475Z,80.40
2023-03-13T09:31:08.625Z,80.50
2023-03-13T09:33:36.903Z,80.40
2023-03-13T09:36:05.362Z,80.70
2023-03-13T09:38:33.835Z,79.80
2023-03-13T09:41:20.859Z,79.30
2023-03-13T09:43:52.963Z,79.50
2023-03-13T09:46:26.195Z,79.80
2023-03-13T09:48:57.178Z,79.60
2023-03-13T09:51:29.293Z,79.10
2023-03-13T09:54:02.284Z,78.80
2023-03-13T09:56:38.009Z,78.60
2023-03-13T09:59:14.761Z,77.50
2023-03-13T10:01:45.002Z,77.20
2023-03-13T10:04:31.895Z,77.60
2023-03-13T10:06:59.746Z,78.30
2023-03-13T10:09:30.803Z,78.30
2023-03-13T10:12:08.758Z,76.90
2023-03-13T10:14:44.836Z,77.10
2023-03-13T10:17:21.175Z,75.90
2023-03-13T10:19:56.651Z,76.10
2023-03-13T10:22:27.145Z,76.20
2023-03-13T10:24:59.570Z,74.60
2023-03-13T10:27:28.778Z,76.30
2023-03-13T10:29:56.615Z,76.40
2023-03-13T10:32:24.491Z,77.10
2023-03-13T10:34:56.569Z,77.20
2023-03-13T10:37:27.859Z,77.70
2023-03-13T10:40:11.835Z,76.20
2023-03-13T10:42:45.149Z,75.10
2023-03-13T10:45:17.401Z,74.80
2023-03-13T10:47:45.573Z,73.80
2023-03-13T10:50:20.244Z,72.20
2023-03-13T10:52:49.854Z,72.00
2023-03-13T10:55:20.053Z,71.40
2023-03-13T10:57:59.451Z,71.80
2023-03-13T11:00:34.034Z,71.90
2023-03-13T11:06:04.688Z,71.70
2023-03-13T11:08:36.493Z,70.80
2023-03-13T11:11:05.810Z,69.80
2023-03-13T11:13:42.759Z,71.20
2023-03-13T11:16:20.869Z,70.10
2023-03-13T11:19:11.781Z,69.40
2023-03-13T11:21:48.975Z,69.40
2023-03-13T11:24:25.447Z,68.70
2023-03-13T11:27:05.388Z,69.40
2023-03-13T11:29:43.597Z,69.10
2023-03-13T11:32:20.974Z,68.30
2023-03-13T11:34:52.676Z,69.20
2023-03-13T11:37:23.460Z,68.20
2023-03-13T11:40:02.019Z,67.60
2023-03-13T11:43:00.145Z,68.10
2023-03-13T11:45:49.618Z,67.90
2023-03-13T11:48:31.531Z,66.10
2023-03-13T11:51:07.624Z,66.70
2023-03-13T11:53:52.643Z,66.90
2023-03-13T11:56:24.298Z,66.80
2023-03-13T11:59:22.445Z,64.70
2023-03-13T12:01:56.776Z,65.20
2023-03-13T12:04:28.760Z,65.80
2023-03-13T12:07:04.508Z,66.60
2023-03-13T12:09:38.045Z,66.00
2023-03-13T12:12:13.028Z,64.00
2023-03-13T12:14:44.437Z,63.90
2023-03-13T12:17:17.076Z,65.30
2023-03-13T12:19:52.061Z,64.60
2023-03-13T12:22:26.201Z,64.50
2023-03-13T12:25:01.370Z,64.20
2023-03-13T12:27:35.778Z,63.60
2023-03-13T12:30:08.437Z,63.90
2023-03-13T12:32:40.977Z,63.20
2023-03-13T12:35:19.126Z,64.40
2023-03-13T12:37:51.229Z,63.20
2023-03-13T12:40:25.615Z,63.30
2023-03-13T12:42:58.157Z,62.70
2023-03-13T12:45:29.219Z,63.20
2023-03-13T12:48:23.285Z,62.30
2023-03-13T12:51:15.973Z,62.50
2023-03-13T12:54:10.816Z,62.40
2023-03-13T12:56:49.414Z,59.80
2023-03-13T12:59:20.131Z,61.00
2023-03-13T13:01:51.162Z,60.80
2023-03-13T13:04:23.215Z,61.10
2023-03-13T13:06:59.258Z,61.70
2023-03-13T13:09:28.358Z,62.90
2023-03-13T13:11:58.080Z,63.90
2023-03-13T13:14:58.082Z,64.20
2023-03-13T13:18:07.686Z,63.60
2023-03-13T13:20:44.273Z,59.90
2023-03-13T13:23:34.093Z,59.90
2023-03-13T13:26:48.220Z,59.20
2023-03-13T13:29:58.584Z,58.70
2023-03-13T13:32:47.921Z,58.30
2023-03-13T13:35:41.131Z,59.50
2023-03-13T13:38:39.629Z,60.20
2023-03-13T13:41:40.113Z,60.80
2023-03-13T13:44:28.302Z,61.00
2023-03-13T13:46:59.337Z,60.70
2023-03-13T13:49:37.562Z,60.90
2023-03-13T13:52:40.436Z,60.10
2023-03-13T13:55:31.871Z,60.40
2023-03-13T13:58:05.300Z,59.60
2023-03-13T14:00:41.892Z,60.20
2023-03-13T14:03:28.131Z,61.20
2023-03-13T14:06:00.419Z,60.70
2023-03-13T14:08:32.322Z,60.90
2023-03-13T14:11:19.870Z,61.60
2023-03-13T14:14:11.612Z,60.70
2023-03-13T14:16:39.882Z,61.10
2023-03-13T14:19:25.291Z,60.00
2023-03-13T14:21:59.617Z,59.30
2023-03-13T14:24:28.873Z,57.50
2023-03-13T14:26:56.803Z,58.50
2023-03-13T14:29:26.793Z,58.70
2023-03-13T14:31:56.816Z,58.00
2023-03-13T14:34:25.821Z,59.10
2023-03-13T14:37:04.347Z,59.10
2023-03-13T14:39:46.012Z,60.10
2023-03-13T14:42:15.731Z,60.10
2023-03-13T14:44:46.719Z,60.60
2023-03-13T14:47:24.452Z,58.90
2023-03-13T14:49:58.679Z,59.30
2023-03-13T14:52:28.608Z,59.50
2023-03-13T14:55:02.078Z,58.40
2023-03-13T14:57:30.862Z,58.30
2023-03-13T15:00:29.425Z,58.70
2023-03-13T15:03:25.711Z,58.50
2023-03-13T15:06:08.681Z,59.60
2023-03-13T15:08:37.915Z,59.00
2023-03-13T15:11:20.887Z,59.10
2023-03-13T15:13:48.901Z,58.80
2023-03-13T15:16:20.066Z,58.10
2023-03-13T15:18:48.598Z,58.40
2023-03-13T15:21:26.449Z,58.30
2023-03-13T15:23:57.028Z,59.00
2023-03-13T15:26:27.134Z,57.60
2023-03-13T15:28:55.586Z,57.10
2023-03-13T15:31:27.579Z,55.80
2023-03-13T15:33:58.912Z,56.20
2023-03-13T15:36:27.934Z,56.90
2023-03-13T15:38:56.203Z,56.70
2023-03-13T15:41:25.825Z,56.30
2023-03-13T15:43:55.320Z,56.20
2023-03-13T15:46:24.773Z,55.40
2023-03-13T15:48:53.901Z,54.80
2023-03-13T15:51:21.828Z,55.50
2023-03-13T15:53:49.659Z,56.40
2023-03-13T15:56:18.888Z,57.20
2023-03-13T15:58:49.075Z,56.20
2023-03-13T16:01:18.719Z,56.90
2023-03-13T16:03:46.716Z,54.00
2023-03-13T16:06:17.529Z,54.00
2023-03-13T16:08:45.949Z,53.80
2023-03-13T16:11:15.676Z,54.60
2023-03-13T16:13:43.755Z,54.80
2023-03-13T16:16:21.949Z,54.10
2023-03-13T16:18:50.774Z,53.60
2023-03-13T16:21:22.051Z,53.80
2023-03-13T16:23:50.056Z,53.50
2023-03-13T16:26:19.794Z,54.20
2023-03-13T16:28:48.232Z,54.10
2023-03-13T16:31:22.511Z,54.50
2023-03-13T16:33:53.693Z,54.90
2023-03-13T16:36:24.005Z,55.20
2023-03-13T16:38:52.772Z,56.20
2023-03-13T16:41:23.059Z,56.50
2023-03-13T16:43:51.148Z,56.40
2023-03-13T16:46:22.140Z,56.60
2023-03-13T16:48:51.129Z,57.50
2023-03-13T16:51:21.194Z,58.90
2023-03-13T16:53:50.797Z,60.20
2023-03-13T16:56:26.831Z,61.50
2023-03-13T16:58:55.361Z,62.80
2023-03-13T17:01:25.938Z,63.40
2023-03-13T17:03:54.536Z,63.50
2023-03-13T17:06:24.340Z,63.80
2023-03-13T17:08:52.549Z,64.40
2023-03-13T17:11:21.848Z,65.10
2023-03-13T17:13:51.396Z,64.50
2023-03-13T17:16:21.002Z,65.10
2023-03-13T17:18:52.484Z,65.20
2023-03-13T17:21:22.386Z,65.40
2023-03-13T17:23:50.287Z,65.60
2023-03-13T17:26:21.471Z,65.80
2023-03-13T17:28:51.708Z,65.30
2023-03-13T17:31:21.390Z,65.10
2023-03-13T17:33:50.766Z,65.40
2023-03-13T17:36:21.900Z,65.10
2023-03-13T17:38:51.739Z,64.40
2023-03-13T17:41:21.906Z,64.70
2023-03-13T17:43:49.990Z,64.70
2023-03-13T17:46:20.715Z,64.50
2023-03-13T17:48:52.455Z,64.80
2023-03-13T17:51:22.850Z,64.70
2023-03-13T17:53:51.668Z,64.50
2023-03-13T17:56:21.989Z,63.70
2023-03-13T17:58:51.423Z,63.90
2023-03-13T18:01:21.377Z,63.80
2023-03-13T18:03:51.325Z,64.60
2023-03-13T18:06:22.435Z,64.70
2023-03-13T18:08:52.233Z,64.80
2023-03-13T18:11:21.218Z,65.30
2023-03-13T18:13:49.720Z,65.40
2023-03-13T18:16:26.770Z,65.90
2023-03-13T18:18:56.072Z,66.30
2023-03-13T18:21:24.716Z,66.50
2023-03-13T18:23:53.401Z,66.50
2023-03-13T18:26:27.056Z,66.30
2023-03-13T18:28:59.866Z,66.50
2023-03-13T18:31:29.636Z,66.70
2023-03-13T18:34:00.588Z,66.80
2023-03-13T18:36:29.170Z,67.00
2023-03-13T18:38:58.097Z,67.50
2023-03-13T18:41:26.797Z,68.00
2023-03-13T18:43:54.637Z,68.00
2023-03-13T18:46:24.373Z,68.30
2023-03-13T18:48:52.246Z,68.70
2023-03-13T18:51:24.129Z,68.80
2023-03-13T18:53:52.666Z,69.00
2023-03-13T18:56:23.484Z,69.20
2023-03-13T18:58:53.094Z,69.70
2023-03-13T19:01:23.669Z,69.90
2023-03-13T19:03:51.607Z,70.00
2023-03-13T19:06:24.388Z,70.30
2023-03-13T19:08:54.362Z,70.40
2023-03-13T19:11:24.588Z,70.40
2023-03-13T19:13:52.512Z,70.70
2023-03-13T19:16:23.064Z,70.70
2023-03-13T19:18:52.575Z,70.80
2023-03-13T19:21:24.276Z,71.10
2023-03-13T19:23:53.108Z,70.80
2023-03-13T19:26:28.285Z,70.40
2023-03-13T19:28:56.093Z,70.50
2023-03-13T19:31:24.603Z,71.00
2023-03-13T19:33:53.374Z,70.50
2023-03-13T19:36:24.001Z,70.90
2023-03-13T19:38:52.433Z,71.20
2023-03-13T19:41:20.216Z,71.50
2023-03-13T19:43:48.147Z,72.00
2023-03-13T19:46:27.342Z,72.00
2023-03-13T19:48:55.620Z,72.20
2023-03-13T19:51:26.868Z,72.40
2023-03-13T19:53:55.349Z,72.90
2023-03-13T19:56:25.119Z,72.60
2023-03-13T19:58:57.370Z,73.00
2023-03-13T20:01:25.493Z,73.10
2023-03-13T20:03:53.485Z,73.30
2023-03-13T20:06:23.424Z,73.10
2023-03-13T20:08:55.302Z,73.10
2023-03-13T20:11:23.326Z,73.30
2023-03-13T20:13:51.239Z,73.40
2023-03-13T20:16:19.751Z,73.50
2023-03-13T20:18:50.270Z,73.50
2023-03-13T20:21:18.985Z,73.30
2023-03-13T20:23:48.473Z,73.40
2023-03-13T20:26:19.712Z,73.60
2023-03-13T20:28:49.071Z,73.60
2023-03-13T20:31:18.930Z,73.80
2023-03-13T20:33:46.906Z,73.90
2023-03-13T20:36:16.433Z,74.30
2023-03-13T20:38:44.735Z,73.90
2023-03-13T20:41:12.691Z,73.90
2023-03-13T20:43:42.149Z,73.70
2023-03-13T20:46:10.186Z,73.10
2023-03-13T20:48:39.820Z,72.90
2023-03-13T20:51:09.100Z,72.50
2023-03-13T20:53:37.426Z,72.30
2023-03-13T20:56:07.029Z,72.40
2023-03-13T20:58:35.205Z,72.30
2023-03-13T21:01:06.448Z,72.40
2023-03-13T21:03:35.750Z,72.40
2023-03-13T21:06:10.577Z,72.30
2023-03-13T21:08:39.015Z,72.00
2023-03-13T21:11:13.446Z,72.10
2023-03-13T21:13:41.373Z,72.50
2023-03-13T21:16:11.219Z,72.40
2023-03-13T21:18:39.413Z,72.60
2023-03-13T21:21:09.273Z,72.50
2023-03-13T21:23:38.464Z,72.20
2023-03-13T21:26:06.609Z,72.50
2023-03-13T21:28:34.578Z,72.00
2023-03-13T21:31:12.459Z,72.10
2023-03-13T21:33:41.372Z,72.20
2023-03-13T21:36:10.397Z,71.90
2023-03-13T21:38:38.271Z,72.50
2023-03-13T21:41:09.279Z,72.10
2023-03-13T21:43:37.403Z,71.90
2023-03-13T21:46:05.610Z,72.10
2023-03-13T21:48:34.870Z,72.20
2023-03-13T21:51:02.662Z,72.60
2023-03-13T21:53:30.445Z,72.40
2023-03-13T21:55:58.261Z,72.80
2023-03-13T21:58:26.175Z,73.10
2023-03-13T22:00:54.996Z,73.70
2023-03-13T22:03:23.401Z,74.40
2023-03-13T22:05:52.725Z,74.80
2023-03-13T22:08:20.613Z,75.40
2023-03-13T22:10:49.912Z,75.50
2023-03-13T22:13:17.935Z,75.80
2023-03-13T22:15:46.481Z,76.00
2023-03-13T22:18:14.524Z,75.90
2023-03-13T22:20:42.841Z,75.90
2023-03-13T22:23:12.202Z,76.00
2023-03-13T22:25:40.283Z,76.00
2023-03-13T22:28:08.106Z,76.20
2023-03-13T22:30:36.110Z,76.20
2023-03-13T22:33:06.626Z,76.60
2023-03-13T22:35:34.504Z,77.00
2023-03-13T22:38:02.375Z,77.00
2023-03-13T22:40:31.630Z,77.20
2023-03-13T22:42:59.599Z,77.50
2023-03-13T22:45:27.540Z,77.70
2023-03-13T22:47:55.424Z,77.90
2023-03-13T22:50:25.563Z,78.20
2023-03-13T22:52:53.570Z,78.60
2023-03-13T22:55:21.348Z,79.00
2023-03-13T22:57:50.498Z,79.10
2023-03-13T23:00:19.085Z,79.10
2023-03-13T23:02:47.484Z,78.90
2023-03-13T23:05:15.292Z,78.80
2023-03-13T23:07:44.428Z,79.10
2023-03-13T23:10:13.293Z,78.90
2023-03-13T23:12:41.222Z,79.10
2023-03-13T23:15:12.404Z,79.00
2023-03-13T23:17:40.349Z,79.00
2023-03-13T23:20:13.539Z,79.00
2023-03-13T23:22:42.433Z,79.00
2023-03-13T23:25:11.456Z,79.10
2023-03-13T23:27:39.261Z,79.10
2023-03-13T23:30:12.015Z,79.00
2023-03-13T23:32:41.788Z,79.00
2023-03-13T23:35:10.811Z,78.90
2023-03-13T23:37:38.710Z,78.80
2023-03-13T23:40:09.741Z,78.80
2023-03-13T23:42:37.828Z,78.60
2023-03-13T23:45:06.653Z,78.50
2023-03-13T23:47:35.868Z,78.50
2023-03-13T23:50:05.196Z,78.50
2023-03-13T23:52:34.961Z,78.60
2023-03-13T23:55:04.263Z,78.60
2023-03-13T23:57:32.492Z,78.80
